Time;durP1;ratioP1;P1;durP2;ratioP2;P2;SDS_P1;SDS_P2;PMS_P1;PMS_P2;Temp;Humidity;BMP_temperature;BMP_pressure;BME280_temperature;BME280_humidity;BME280_pressure;Samples;Min_cycle;Max_cycle;Signal;HPM_P1;HPM_P2
2021/04/04 00:01:08;;;;;;;5.33;4.83;;;;;;;7.46;73.88;94158.64;822722;71;29541;-77
2021/04/04 00:16:08;;;;;;;4.62;4.22;;;;;;;7.35;75.06;94173.62;834477;71;29699;-80
2021/04/04 00:31:16;;;;;;;5.45;4.55;;;;;;;7.22;76.58;94177.13;833786;71;32715;-78
2021/04/04 00:46:14;;;;;;;4.90;4.35;;;;;;;7.15;77.26;94184.47;833791;71;33125;-80
2021/04/04 01:01:17;;;;;;;4.65;4.25;;;;;;;7.00;77.04;94202.86;827416;71;33163;-76
2021/04/04 01:16:27;;;;;;;4.00;3.62;;;;;;;6.97;78.23;94208.08;827322;71;33241;-79
2021/04/04 01:31:17;;;;;;;5.10;4.50;;;;;;;6.88;77.18;94192.00;828923;71;33416;-79
2021/04/04 01:46:11;;;;;;;4.60;4.20;;;;;;;6.79;76.87;94200.39;833835;71;30282;-78
2021/04/04 02:01:15;;;;;;;5.30;4.40;;;;;;;6.68;77.20;94187.16;828435;71;33181;-77
2021/04/04 02:16:10;;;;;;;6.47;4.95;;;;;;;6.59;77.57;94171.84;835889;70;30373;-84
2021/04/04 02:31:32;;;;;;;5.97;5.33;;;;;;;6.58;77.76;94178.09;824833;71;33066;-77
2021/04/04 02:46:12;;;;;;;8.75;6.42;;;;;;;6.56;77.95;94181.50;828175;71;30364;-79
2021/04/04 03:01:44;;;;;;;11.05;8.48;;;;;;;6.52;78.14;94164.84;829725;71;30303;-78
2021/04/04 03:16:09;;;;;;;10.35;7.75;;;;;;;6.48;77.48;94165.90;834073;71;30300;-80
2021/04/04 03:31:14;;;;;;;13.58;9.85;;;;;;;6.50;77.36;94152.61;828104;71;30830;-77
2021/04/04 03:46:16;;;;;;;12.40;9.63;;;;;;;6.53;77.23;94155.95;834688;71;32750;-77
2021/04/04 04:01:18;;;;;;;14.85;10.63;;;;;;;6.53;76.58;94154.66;833807;71;32732;-74
2021/04/04 04:16:17;;;;;;;16.17;11.97;;;;;;;6.52;76.69;94156.48;827332;71;32728;-76
2021/04/04 04:31:20;;;;;;;17.65;12.25;;;;;;;6.55;76.37;94145.53;828021;71;31521;-75
2021/04/04 04:46:17;;;;;;;18.42;12.40;;;;;;;6.60;75.89;94152.01;827375;71;32882;-76
2021/04/04 05:01:31;;;;;;;17.77;13.43;;;;;;;6.65;75.71;94160.34;832530;71;32831;-77
2021/04/04 05:16:18;;;;;;;18.42;12.82;;;;;;;6.78;75.35;94181.11;828250;71;32736;-78
2021/04/04 05:31:16;;;;;;;16.90;11.70;;;;;;;6.80;74.43;94202.47;827727;71;32729;-76
2021/04/04 05:46:37;;;;;;;17.37;12.30;;;;;;;6.68;73.83;94202.80;828643;71;29768;-78
2021/04/04 06:01:18;;;;;;;17.73;11.73;;;;;;;6.62;74.80;94202.58;829134;71;32172;-76
2021/04/04 06:16:21;;;;;;;15.00;11.60;;;;;;;6.70;74.77;94206.45;833763;71;32741;-77
2021/04/04 06:31:29;;;;;;;17.87;12.10;;;;;;;6.78;74.77;94217.61;822984;71;32727;-78
2021/04/04 06:46:45;;;;;;;20.05;13.05;;;;;;;6.93;74.59;94204.45;827272;71;33242;-77
2021/04/04 07:01:30;;;;;;;20.08;14.13;;;;;;;6.93;74.24;94229.77;827178;71;32818;-79
2021/04/04 07:16:36;;;;;;;17.40;12.37;;;;;;;7.00;75.02;94230.25;828038;71;29661;-76
2021/04/04 07:31:12;;;;;;;18.62;13.22;;;;;;;7.20;75.51;94214.45;820573;70;30370;-78
2021/04/04 08:01:20;;;;;;;18.37;13.75;;;;;;;7.79;74.37;94216.55;834531;71;29713;-81
2021/04/04 08:16:43;;;;;;;18.15;12.25;;;;;;;7.61;73.99;94210.19;819558;71;32047;-80
2021/04/04 08:31:23;;;;;;;17.20;12.60;;;;;;;7.80;73.77;94206.88;813813;71;32016;-79
2021/04/04 08:46:27;;;;;;;19.37;13.08;;;;;;;8.06;74.10;94200.08;828061;71;30248;-78
2021/04/04 09:01:50;;;;;;;21.48;14.43;;;;;;;8.15;73.79;94192.66;818781;71;30111;-79
2021/04/04 09:16:16;;;;;;;16.07;11.75;;;;;;;8.27;72.46;94179.70;833622;71;32714;-79
2021/04/04 09:31:20;;;;;;;18.98;13.48;;;;;;;8.61;72.20;94176.94;827861;71;29695;-77
2021/04/04 09:46:22;;;;;;;16.40;11.78;;;;;;;8.61;70.40;94170.41;828139;71;32836;-77
2021/04/04 10:01:23;;;;;;;13.93;11.70;;;;;;;13.08;63.77;94162.63;827689;71;30288;-78
2021/04/04 10:16:21;;;;;;;16.05;11.75;;;;;;;10.32;64.40;94183.02;827123;71;33219;-76
2021/04/04 10:31:12;;;;;;;14.60;10.40;;;;;;;9.16;67.82;94186.88;821917;71;32640;-78
2021/04/04 10:46:18;;;;;;;12.20;9.18;;;;;;;8.70;69.43;94192.77;823998;71;32810;-76
2021/04/04 11:01:12;;;;;;;12.93;9.10;;;;;;;8.37;70.26;94186.11;819708;71;30688;-79
2021/04/04 11:16:17;;;;;;;11.08;8.38;;;;;;;7.98;70.61;94196.23;829189;71;32811;-79
2021/04/04 11:31:18;;;;;;;11.90;9.15;;;;;;;7.65;72.56;94187.45;820561;71;32804;-77
2021/04/04 11:46:49;;;;;;;10.80;8.83;;;;;;;7.55;73.06;94153.08;820497;71;30067;-81
2021/04/04 12:01:10;;;;;;;10.93;9.28;;;;;;;8.66;72.38;94142.09;825196;71;30727;-76
2021/04/04 12:16:09;;;;;;;13.53;10.43;;;;;;;7.89;73.27;94130.01;833636;71;30246;-77
2021/04/04 12:31:17;;;;;;;12.35;9.65;;;;;;;7.66;74.19;94101.53;823918;71;32883;-80
2021/04/04 12:46:14;;;;;;;10.95;9.30;;;;;;;7.34;75.66;94078.91;820297;71;33426;-80
2021/04/04 13:01:17;;;;;;;11.57;9.88;;;;;;;7.22;75.55;94094.93;819313;71;32930;-79
2021/04/04 13:16:16;;;;;;;13.03;9.90;;;;;;;7.09;75.91;94093.49;820786;71;32873;-80
2021/04/04 13:31:18;;;;;;;14.95;12.25;;;;;;;7.13;76.04;94074.93;834114;71;34682;-75
2021/04/04 13:46:41;;;;;;;15.48;11.70;;;;;;;6.85;76.79;94056.39;824797;71;32801;-78
2021/04/04 14:01:26;;;;;;;16.62;12.47;;;;;;;6.71;77.32;94035.42;834143;71;32739;-79
2021/04/04 14:16:08;;;;;;;14.45;11.90;;;;;;;6.49;78.50;94024.13;828202;71;29872;-78
2021/04/04 14:31:15;;;;;;;17.95;11.75;;;;;;;6.49;77.69;94058.52;827251;71;32747;-81
2021/04/04 14:46:09;;;;;;;21.45;14.20;;;;;;;6.39;78.75;94052.88;828082;71;30252;-77
2021/04/04 15:01:45;;;;;;;22.48;15.32;;;;;;;6.32;78.92;94051.09;827205;71;32849;-78
2021/04/04 15:16:16;;;;;;;18.90;13.15;;;;;;;6.25;79.04;94016.77;827052;71;32737;-78
2021/04/04 15:31:09;;;;;;;18.45;13.48;;;;;;;6.29;79.10;94030.27;825713;71;30533;-77
2021/04/04 15:46:15;;;;;;;11.60;9.33;;;;;;;6.30;78.49;94044.84;827274;71;32724;-77
2021/04/04 16:01:09;;;;;;;14.23;11.18;;;;;;;6.27;79.39;94033.67;833797;71;30244;-76
2021/04/04 16:16:14;;;;;;;16.25;12.45;;;;;;;6.26;79.22;94037.84;827826;71;32698;-77
2021/04/04 16:31:19;;;;;;;20.10;14.13;;;;;;;6.18;79.01;94024.37;825913;71;33164;-80
2021/04/04 16:46:11;;;;;;;10.98;9.50;;;;;;;5.98;78.48;94053.11;828712;71;31463;-81
2021/04/04 17:01:35;;;;;;;14.60;10.13;;;;;;;5.82;79.41;94071.41;767641;76;33021;-82
2021/04/04 17:16:14;;;;;;;10.82;8.65;;;;;;;5.72;78.86;94066.78;821719;71;31603;-77
2021/04/04 17:31:18;;;;;;;12.05;9.98;;;;;;;5.59;81.34;94089.70;831647;71;32732;-80
2021/04/04 17:46:38;;;;;;;9.83;8.35;;;;;;;5.38;79.66;94089.53;809588;72;32807;-78
2021/04/04 18:01:23;;;;;;;10.50;8.85;;;;;;;5.08;79.32;94106.74;834491;71;32778;-81
2021/04/04 19:16:52;;;;;;;7.25;6.55;;;;;;;4.43;81.39;94161.05;801851;74;32895;-81
2021/04/04 20:01:20;;;;;;;8.85;7.47;;;;;;;4.41;82.11;94171.69;828716;71;32683;-80
2021/04/04 20:16:19;;;;;;;10.72;8.78;;;;;;;4.48;81.48;94180.55;833842;71;33309;-77
2021/04/04 20:31:23;;;;;;;14.83;8.93;;;;;;;4.53;81.44;94175.34;835769;71;32772;-81
2021/04/04 20:46:12;;;;;;;10.88;8.43;;;;;;;4.51;81.01;94174.05;828438;71;32035;-80
2021/04/04 21:01:44;;;;;;;13.50;9.90;;;;;;;4.51;80.93;94176.65;828290;71;32540;-79
2021/04/04 21:16:09;;;;;;;17.32;11.57;;;;;;;4.50;81.46;94175.08;834613;71;29551;-79
2021/04/04 21:31:15;;;;;;;18.73;13.25;;;;;;;4.53;81.64;94173.27;827409;71;31677;-79
2021/04/04 21:46:15;;;;;;;17.25;11.80;;;;;;;4.55;81.54;94175.88;828206;71;32785;-78
2021/04/04 22:01:19;;;;;;;16.48;11.53;;;;;;;4.63;81.41;94181.61;827925;71;32951;-79
2021/04/04 22:16:22;;;;;;;19.00;11.35;;;;;;;4.72;80.33;94184.72;828198;71;32740;-79
2021/04/04 22:31:29;;;;;;;14.60;10.60;;;;;;;4.71;79.87;94181.88;820968;71;33185;-76
2021/04/04 22:46:29;;;;;;;14.70;10.30;;;;;;;4.74;80.15;94185.24;833614;71;32942;-78
2021/04/04 23:01:09;;;;;;;14.25;9.83;;;;;;;4.75;80.21;94167.85;834010;71;30343;-80
2021/04/04 23:16:15;;;;;;;15.25;10.98;;;;;;;4.72;79.46;94167.05;827709;71;32818;-79
2021/04/04 23:31:09;;;;;;;12.95;10.18;;;;;;;4.67;79.07;94165.23;827851;71;30920;-77
2021/04/04 23:46:22;;;;;;;13.22;10.15;;;;;;;4.59;78.00;94176.91;829104;70;32863;-82
